sensor_id;sensor_type;location;lat;lon;timestamp;P1;durP1;ratioP1;P2;durP2;ratioP2
81176;SDS011;74095;48.270;14.200;2023-12-04T00:01:33;26.58;;;13.23;;
81176;SDS011;74095;48.270;14.200;2023-12-04T00:04:00;55.05;;;19.85;;
81176;SDS011;74095;48.270;14.200;2023-12-04T00:06:26;18.00;;;7.38;;
81176;SDS011;74095;48.270;14.200;2023-12-04T00:08:52;80.07;;;23.27;;
81176;SDS011;74095;48.270;14.200;2023-12-04T00:11:18;156.35;;;27.98;;
81176;SDS011;74095;48.270;14.200;2023-12-04T00:13:44;73.43;;;21.65;;
81176;SDS011;74095;48.270;14.200;2023-12-04T00:16:10;60.05;;;19.45;;
81176;SDS011;74095;48.270;14.200;2023-12-04T00:18:36;86.85;;;23.67;;
81176;SDS011;74095;48.270;14.200;2023-12-04T00:21:02;56.25;;;19.70;;
81176;SDS011;74095;48.270;14.200;2023-12-04T00:23:28;28.38;;;9.27;;
81176;SDS011;74095;48.270;14.200;2023-12-04T00:25:54;36.72;;;13.68;;
81176;SDS011;74095;48.270;14.200;2023-12-04T00:28:21;30.50;;;11.98;;
81176;SDS011;74095;48.270;14.200;2023-12-04T00:30:47;30.50;;;11.85;;
81176;SDS011;74095;48.270;14.200;2023-12-04T00:33:13;48.25;;;17.50;;
81176;SDS011;74095;48.270;14.200;2023-12-04T00:35:39;80.10;;;20.48;;
81176;SDS011;74095;48.270;14.200;2023-12-04T00:38:05;101.22;;;22.42;;
81176;SDS011;74095;48.270;14.200;2023-12-04T00:40:31;83.82;;;18.15;;
81176;SDS011;74095;48.270;14.200;2023-12-04T00:42:57;92.90;;;21.17;;
81176;SDS011;74095;48.270;14.200;2023-12-04T00:45:23;57.35;;;16.30;;
81176;SDS011;74095;48.270;14.200;2023-12-04T00:47:49;59.15;;;16.10;;
81176;SDS011;74095;48.270;14.200;2023-12-04T00:50:15;86.10;;;20.10;;
81176;SDS011;74095;48.270;14.200;2023-12-04T00:52:41;65.15;;;18.67;;
81176;SDS011;74095;48.270;14.200;2023-12-04T00:55:07;73.43;;;19.17;;
81176;SDS011;74095;48.270;14.200;2023-12-04T00:57:33;65.13;;;20.20;;
81176;SDS011;74095;48.270;14.200;2023-12-04T00:59:59;102.75;;;22.95;;
81176;SDS011;74095;48.270;14.200;2023-12-04T01:02:25;81.70;;;20.13;;
81176;SDS011;74095;48.270;14.200;2023-12-04T01:04:51;75.40;;;18.60;;
81176;SDS011;74095;48.270;14.200;2023-12-04T01:07:17;64.25;;;16.15;;
81176;SDS011;74095;48.270;14.200;2023-12-04T01:09:43;66.43;;;17.48;;
81176;SDS011;74095;48.270;14.200;2023-12-04T01:12:08;81.03;;;17.45;;
81176;SDS011;74095;48.270;14.200;2023-12-04T01:14:35;81.60;;;18.75;;
81176;SDS011;74095;48.270;14.200;2023-12-04T01:17:00;70.05;;;18.20;;
81176;SDS011;74095;48.270;14.200;2023-12-04T01:19:26;113.75;;;23.55;;
81176;SDS011;74095;48.270;14.200;2023-12-04T01:21:52;17.05;;;6.93;;
81176;SDS011;74095;48.270;14.200;2023-12-04T01:24:19;48.58;;;13.25;;
81176;SDS011;74095;48.270;14.200;2023-12-04T01:26:45;65.05;;;16.13;;
81176;SDS011;74095;48.270;14.200;2023-12-04T01:29:10;65.22;;;17.52;;
81176;SDS011;74095;48.270;14.200;2023-12-04T01:31:36;62.88;;;18.20;;
81176;SDS011;74095;48.270;14.200;2023-12-04T01:34:02;72.57;;;18.58;;
81176;SDS011;74095;48.270;14.200;2023-12-04T01:36:28;30.95;;;12.38;;
81176;SDS011;74095;48.270;14.200;2023-12-04T01:38:54;37.28;;;13.43;;
81176;SDS011;74095;48.270;14.200;2023-12-04T01:41:20;78.40;;;18.27;;
81176;SDS011;74095;48.270;14.200;2023-12-04T01:43:46;79.68;;;19.38;;
81176;SDS011;74095;48.270;14.200;2023-12-04T01:46:13;83.93;;;17.85;;
81176;SDS011;74095;48.270;14.200;2023-12-04T01:48:41;42.00;;;13.18;;
81176;SDS011;74095;48.270;14.200;2023-12-04T01:51:07;52.00;;;14.27;;
81176;SDS011;74095;48.270;14.200;2023-12-04T01:53:36;39.08;;;12.70;;
81176;SDS011;74095;48.270;14.200;2023-12-04T01:56:05;36.80;;;14.50;;
81176;SDS011;74095;48.270;14.200;2023-12-04T01:58:31;34.47;;;13.60;;
81176;SDS011;74095;48.270;14.200;2023-12-04T02:00:58;46.47;;;14.80;;
81176;SDS011;74095;48.270;14.200;2023-12-04T02:03:24;58.95;;;14.07;;
81176;SDS011;74095;48.270;14.200;2023-12-04T02:05:51;44.88;;;12.82;;
81176;SDS011;74095;48.270;14.200;2023-12-04T02:08:18;54.90;;;11.70;;
81176;SDS011;74095;48.270;14.200;2023-12-04T02:10:44;31.17;;;8.23;;
81176;SDS011;74095;48.270;14.200;2023-12-04T02:13:10;45.42;;;15.52;;
81176;SDS011;74095;48.270;14.200;2023-12-04T02:15:36;54.17;;;14.05;;
81176;SDS011;74095;48.270;14.200;2023-12-04T02:18:03;68.82;;;16.00;;
81176;SDS011;74095;48.270;14.200;2023-12-04T02:20:32;26.55;;;9.00;;
81176;SDS011;74095;48.270;14.200;2023-12-04T02:23:00;61.55;;;16.92;;
81176;SDS011;74095;48.270;14.200;2023-12-04T02:25:26;54.63;;;12.95;;
81176;SDS011;74095;48.270;14.200;2023-12-04T02:27:53;72.25;;;15.73;;
81176;SDS011;74095;48.270;14.200;2023-12-04T02:30:22;49.30;;;13.68;;
81176;SDS011;74095;48.270;14.200;2023-12-04T02:32:50;47.67;;;12.82;;
81176;SDS011;74095;48.270;14.200;2023-12-04T02:35:24;63.92;;;13.77;;
81176;SDS011;74095;48.270;14.200;2023-12-04T02:37:53;43.60;;;15.45;;
81176;SDS011;74095;48.270;14.200;2023-12-04T02:40:19;72.90;;;17.52;;
81176;SDS011;74095;48.270;14.200;2023-12-04T02:42:45;47.83;;;14.85;;
81176;SDS011;74095;48.270;14.200;2023-12-04T02:45:11;33.85;;;13.75;;
81176;SDS011;74095;48.270;14.200;2023-12-04T02:47:37;38.38;;;13.45;;
81176;SDS011;74095;48.270;14.200;2023-12-04T02:50:03;6.93;;;4.30;;
81176;SDS011;74095;48.270;14.200;2023-12-04T02:52:29;30.15;;;12.38;;
81176;SDS011;74095;48.270;14.200;2023-12-04T02:54:55;29.83;;;13.70;;
81176;SDS011;74095;48.270;14.200;2023-12-04T02:57:21;18.92;;;7.90;;
81176;SDS011;74095;48.270;14.200;2023-12-04T02:59:48;28.88;;;11.55;;
81176;SDS011;74095;48.270;14.200;2023-12-04T03:02:14;23.63;;;8.75;;
81176;SDS011;74095;48.270;14.200;2023-12-04T03:04:40;34.28;;;14.63;;
81176;SDS011;74095;48.270;14.200;2023-12-04T03:07:06;12.30;;;6.18;;
81176;SDS011;74095;48.270;14.200;2023-12-04T03:09:32;72.10;;;18.60;;
81176;SDS011;74095;48.270;14.200;2023-12-04T03:11:57;75.65;;;16.40;;
81176;SDS011;74095;48.270;14.200;2023-12-04T03:14:23;134.95;;;26.02;;
81176;SDS011;74095;48.270;14.200;2023-12-04T03:16:49;131.93;;;23.80;;
81176;SDS011;74095;48.270;14.200;2023-12-04T03:19:15;194.23;;;28.42;;
81176;SDS011;74095;48.270;14.200;2023-12-04T03:21:41;83.85;;;20.50;;
81176;SDS011;74095;48.270;14.200;2023-12-04T03:24:07;34.55;;;12.82;;
81176;SDS011;74095;48.270;14.200;2023-12-04T03:26:33;18.15;;;6.78;;
81176;SDS011;74095;48.270;14.200;2023-12-04T03:29:00;27.88;;;10.95;;
81176;SDS011;74095;48.270;14.200;2023-12-04T03:31:26;39.30;;;14.15;;
81176;SDS011;74095;48.270;14.200;2023-12-04T03:33:53;38.72;;;14.55;;
81176;SDS011;74095;48.270;14.200;2023-12-04T03:36:19;36.88;;;15.98;;
81176;SDS011;74095;48.270;14.200;2023-12-04T03:38:45;26.63;;;10.52;;
81176;SDS011;74095;48.270;14.200;2023-12-04T03:41:14;39.20;;;12.45;;
81176;SDS011;74095;48.270;14.200;2023-12-04T03:43:41;12.70;;;5.05;;
81176;SDS011;74095;48.270;14.200;2023-12-04T03:46:07;27.67;;;11.75;;
81176;SDS011;74095;48.270;14.200;2023-12-04T03:48:33;38.30;;;14.95;;
81176;SDS011;74095;48.270;14.200;2023-12-04T03:50:59;15.45;;;8.32;;
81176;SDS011;74095;48.270;14.200;2023-12-04T03:53:26;30.38;;;12.73;;
81176;SDS011;74095;48.270;14.200;2023-12-04T03:55:52;24.88;;;9.27;;
81176;SDS011;74095;48.270;14.200;2023-12-04T03:58:18;35.40;;;12.13;;
81176;SDS011;74095;48.270;14.200;2023-12-04T04:00:44;24.75;;;8.93;;
81176;SDS011;74095;48.270;14.200;2023-12-04T04:03:10;36.00;;;13.52;;
81176;SDS011;74095;48.270;14.200;2023-12-04T04:05:36;43.58;;;12.55;;
81176;SDS011;74095;48.270;14.200;2023-12-04T04:08:02;29.80;;;12.27;;
81176;SDS011;74095;48.270;14.200;2023-12-04T04:10:28;29.00;;;12.05;;
81176;SDS011;74095;48.270;14.200;2023-12-04T04:12:54;42.42;;;13.43;;
81176;SDS011;74095;48.270;14.200;2023-12-04T04:15:20;26.15;;;9.30;;
81176;SDS011;74095;48.270;14.200;2023-12-04T04:17:46;42.22;;;14.65;;
81176;SDS011;74095;48.270;14.200;2023-12-04T04:20:12;34.92;;;11.15;;
81176;SDS011;74095;48.270;14.200;2023-12-04T04:22:38;6.32;;;3.50;;
81176;SDS011;74095;48.270;14.200;2023-12-04T04:25:06;57.83;;;13.98;;
81176;SDS011;74095;48.270;14.200;2023-12-04T04:27:32;39.92;;;11.48;;
81176;SDS011;74095;48.270;14.200;2023-12-04T04:29:59;66.53;;;14.07;;
81176;SDS011;74095;48.270;14.200;2023-12-04T04:32:25;42.35;;;13.07;;
81176;SDS011;74095;48.270;14.200;2023-12-04T04:34:51;19.20;;;8.70;;
81176;SDS011;74095;48.270;14.200;2023-12-04T04:37:17;43.15;;;11.35;;
81176;SDS011;74095;48.270;14.200;2023-12-04T04:39:42;34.10;;;10.52;;
81176;SDS011;74095;48.270;14.200;2023-12-04T04:42:08;20.30;;;7.63;;
81176;SDS011;74095;48.270;14.200;2023-12-04T04:44:34;8.00;;;4.22;;
81176;SDS011;74095;48.270;14.200;2023-12-04T04:47:00;13.23;;;6.63;;
81176;SDS011;74095;48.270;14.200;2023-12-04T04:49:26;62.92;;;13.80;;
81176;SDS011;74095;48.270;14.200;2023-12-04T04:54:18;33.53;;;8.75;;
81176;SDS011;74095;48.270;14.200;2023-12-04T04:56:43;60.58;;;13.07;;
81176;SDS011;74095;48.270;14.200;2023-12-04T04:59:09;46.00;;;7.97;;
81176;SDS011;74095;48.270;14.200;2023-12-04T05:01:35;41.38;;;12.93;;
81176;SDS011;74095;48.270;14.200;2023-12-04T05:04:02;28.67;;;9.77;;
81176;SDS011;74095;48.270;14.200;2023-12-04T05:06:28;52.45;;;12.80;;
81176;SDS011;74095;48.270;14.200;2023-12-04T05:08:55;17.92;;;7.25;;
81176;SDS011;74095;48.270;14.200;2023-12-04T05:11:21;50.08;;;12.75;;
81176;SDS011;74095;48.270;14.200;2023-12-04T05:13:47;26.75;;;8.23;;
81176;SDS011;74095;48.270;14.200;2023-12-04T05:16:13;74.57;;;18.98;;
81176;SDS011;74095;48.270;14.200;2023-12-04T05:18:39;18.00;;;8.13;;
81176;SDS011;74095;48.270;14.200;2023-12-04T05:21:08;38.50;;;13.80;;
81176;SDS011;74095;48.270;14.200;2023-12-04T05:23:35;16.63;;;7.43;;
81176;SDS011;74095;48.270;14.200;2023-12-04T05:26:02;47.75;;;14.60;;
81176;SDS011;74095;48.270;14.200;2023-12-04T05:28:28;36.88;;;13.77;;
81176;SDS011;74095;48.270;14.200;2023-12-04T05:30:54;55.38;;;14.68;;
81176;SDS011;74095;48.270;14.200;2023-12-04T05:33:20;25.67;;;9.73;;
81176;SDS011;74095;48.270;14.200;2023-12-04T05:35:47;36.40;;;14.32;;
81176;SDS011;74095;48.270;14.200;2023-12-04T05:38:13;15.43;;;5.47;;
81176;SDS011;74095;48.270;14.200;2023-12-04T05:40:39;29.65;;;10.38;;
81176;SDS011;74095;48.270;14.200;2023-12-04T05:43:05;25.08;;;9.07;;
81176;SDS011;74095;48.270;14.200;2023-12-04T05:45:31;32.85;;;12.10;;
81176;SDS011;74095;48.270;14.200;2023-12-04T05:47:57;36.92;;;13.65;;
81176;SDS011;74095;48.270;14.200;2023-12-04T05:50:22;35.33;;;13.40;;
81176;SDS011;74095;48.270;14.200;2023-12-04T05:52:48;38.53;;;16.55;;
81176;SDS011;74095;48.270;14.200;2023-12-04T05:55:15;81.55;;;21.92;;
81176;SDS011;74095;48.270;14.200;2023-12-04T05:57:41;14.50;;;5.78;;
81176;SDS011;74095;48.270;14.200;2023-12-04T06:00:08;24.92;;;11.82;;
81176;SDS011;74095;48.270;14.200;2023-12-04T06:02:38;25.73;;;11.48;;
81176;SDS011;74095;48.270;14.200;2023-12-04T06:05:05;35.55;;;14.50;;
81176;SDS011;74095;48.270;14.200;2023-12-04T06:07:31;17.75;;;6.10;;
81176;SDS011;74095;48.270;14.200;2023-12-04T06:09:57;32.00;;;12.77;;
81176;SDS011;74095;48.270;14.200;2023-12-04T06:14:49;36.63;;;12.48;;
81176;SDS011;74095;48.270;14.200;2023-12-04T06:17:15;32.20;;;14.68;;
81176;SDS011;74095;48.270;14.200;2023-12-04T06:19:40;21.23;;;10.05;;
81176;SDS011;74095;48.270;14.200;2023-12-04T06:24:32;27.23;;;9.77;;
81176;SDS011;74095;48.270;14.200;2023-12-04T06:26:59;44.53;;;10.50;;
81176;SDS011;74095;48.270;14.200;2023-12-04T06:29:25;35.80;;;12.30;;
81176;SDS011;74095;48.270;14.200;2023-12-04T06:31:51;21.55;;;8.73;;
81176;SDS011;74095;48.270;14.200;2023-12-04T06:34:17;33.45;;;12.57;;
81176;SDS011;74095;48.270;14.200;2023-12-04T06:36:44;34.15;;;13.45;;
81176;SDS011;74095;48.270;14.200;2023-12-04T06:39:10;46.55;;;19.85;;
81176;SDS011;74095;48.270;14.200;2023-12-04T06:41:38;34.75;;;11.13;;
81176;SDS011;74095;48.270;14.200;2023-12-04T06:44:05;39.05;;;13.13;;
81176;SDS011;74095;48.270;14.200;2023-12-04T06:46:31;35.42;;;12.20;;
81176;SDS011;74095;48.270;14.200;2023-12-04T06:49:02;39.28;;;14.27;;
81176;SDS011;74095;48.270;14.200;2023-12-04T06:51:29;19.02;;;8.98;;
81176;SDS011;74095;48.270;14.200;2023-12-04T06:53:55;18.48;;;8.45;;
81176;SDS011;74095;48.270;14.200;2023-12-04T06:56:21;53.10;;;21.55;;
81176;SDS011;74095;48.270;14.200;2023-12-04T06:58:47;16.90;;;10.10;;
81176;SDS011;74095;48.270;14.200;2023-12-04T07:01:13;60.38;;;25.63;;
81176;SDS011;74095;48.270;14.200;2023-12-04T07:03:39;38.17;;;16.30;;
81176;SDS011;74095;48.270;14.200;2023-12-04T07:06:05;43.90;;;19.48;;
81176;SDS011;74095;48.270;14.200;2023-12-04T07:08:31;57.20;;;25.10;;
81176;SDS011;74095;48.270;14.200;2023-12-04T07:10:57;37.17;;;17.00;;
81176;SDS011;74095;48.270;14.200;2023-12-04T07:13:23;20.70;;;10.73;;
81176;SDS011;74095;48.270;14.200;2023-12-04T07:15:49;36.70;;;14.90;;
81176;SDS011;74095;48.270;14.200;2023-12-04T07:18:15;33.00;;;15.40;;
81176;SDS011;74095;48.270;14.200;2023-12-04T07:20:41;30.90;;;13.30;;
81176;SDS011;74095;48.270;14.200;2023-12-04T07:23:07;36.35;;;15.27;;
81176;SDS011;74095;48.270;14.200;2023-12-04T07:25:33;38.15;;;17.63;;
81176;SDS011;74095;48.270;14.200;2023-12-04T07:27:59;29.02;;;11.23;;
81176;SDS011;74095;48.270;14.200;2023-12-04T07:30:24;42.85;;;16.75;;
81176;SDS011;74095;48.270;14.200;2023-12-04T07:32:51;33.30;;;16.15;;
81176;SDS011;74095;48.270;14.200;2023-12-04T07:35:17;33.55;;;15.38;;
81176;SDS011;74095;48.270;14.200;2023-12-04T07:37:46;41.60;;;19.58;;
81176;SDS011;74095;48.270;14.200;2023-12-04T07:40:12;38.72;;;18.17;;
81176;SDS011;74095;48.270;14.200;2023-12-04T07:42:38;31.10;;;14.85;;
81176;SDS011;74095;48.270;14.200;2023-12-04T07:45:04;34.83;;;16.05;;
81176;SDS011;74095;48.270;14.200;2023-12-04T07:47:30;28.25;;;14.45;;
81176;SDS011;74095;48.270;14.200;2023-12-04T07:49:56;39.40;;;19.08;;
81176;SDS011;74095;48.270;14.200;2023-12-04T07:52:22;41.60;;;20.80;;
81176;SDS011;74095;48.270;14.200;2023-12-04T07:54:48;42.40;;;19.95;;
81176;SDS011;74095;48.270;14.200;2023-12-04T07:57:14;39.33;;;19.27;;
81176;SDS011;74095;48.270;14.200;2023-12-04T07:59:40;36.22;;;16.45;;
81176;SDS011;74095;48.270;14.200;2023-12-04T08:02:06;35.92;;;18.02;;
81176;SDS011;74095;48.270;14.200;2023-12-04T08:04:32;33.15;;;16.15;;
81176;SDS011;74095;48.270;14.200;2023-12-04T08:06:57;28.08;;;14.00;;
81176;SDS011;74095;48.270;14.200;2023-12-04T08:09:23;35.70;;;16.55;;
81176;SDS011;74095;48.270;14.200;2023-12-04T08:11:49;23.65;;;12.82;;
81176;SDS011;74095;48.270;14.200;2023-12-04T08:14:15;28.38;;;13.93;;
81176;SDS011;74095;48.270;14.200;2023-12-04T08:16:41;31.83;;;16.67;;
81176;SDS011;74095;48.270;14.200;2023-12-04T08:19:07;25.70;;;15.27;;
81176;SDS011;74095;48.270;14.200;2023-12-04T08:21:33;16.52;;;8.90;;
81176;SDS011;74095;48.270;14.200;2023-12-04T08:23:59;24.38;;;14.10;;
81176;SDS011;74095;48.270;14.200;2023-12-04T08:26:25;26.77;;;13.82;;
81176;SDS011;74095;48.270;14.200;2023-12-04T08:28:51;28.45;;;13.75;;
81176;SDS011;74095;48.270;14.200;2023-12-04T08:31:17;30.80;;;15.02;;
81176;SDS011;74095;48.270;14.200;2023-12-04T08:33:43;33.22;;;17.55;;
81176;SDS011;74095;48.270;14.200;2023-12-04T08:36:10;28.88;;;13.30;;
81176;SDS011;74095;48.270;14.200;2023-12-04T08:38:37;25.40;;;12.80;;
81176;SDS011;74095;48.270;14.200;2023-12-04T08:41:03;17.95;;;8.63;;
81176;SDS011;74095;48.270;14.200;2023-12-04T08:43:30;23.83;;;12.18;;
81176;SDS011;74095;48.270;14.200;2023-12-04T08:45:56;21.23;;;9.93;;
81176;SDS011;74095;48.270;14.200;2023-12-04T08:48:21;24.80;;;12.70;;
81176;SDS011;74095;48.270;14.200;2023-12-04T08:50:47;25.38;;;12.75;;
81176;SDS011;74095;48.270;14.200;2023-12-04T08:53:14;25.85;;;13.18;;
81176;SDS011;74095;48.270;14.200;2023-12-04T08:55:40;15.32;;;8.43;;
81176;SDS011;74095;48.270;14.200;2023-12-04T08:58:05;24.95;;;13.82;;
81176;SDS011;74095;48.270;14.200;2023-12-04T09:00:32;15.85;;;8.68;;
81176;SDS011;74095;48.270;14.200;2023-12-04T09:02:58;17.02;;;9.90;;
81176;SDS011;74095;48.270;14.200;2023-12-04T09:05:24;16.95;;;10.50;;
81176;SDS011;74095;48.270;14.200;2023-12-04T09:07:50;12.10;;;7.53;;
81176;SDS011;74095;48.270;14.200;2023-12-04T09:10:16;14.95;;;8.48;;
81176;SDS011;74095;48.270;14.200;2023-12-04T09:12:42;16.90;;;8.75;;
81176;SDS011;74095;48.270;14.200;2023-12-04T09:15:08;14.02;;;9.18;;
81176;SDS011;74095;48.270;14.200;2023-12-04T09:17:34;13.05;;;7.63;;
81176;SDS011;74095;48.270;14.200;2023-12-04T09:20:00;10.95;;;5.60;;
81176;SDS011;74095;48.270;14.200;2023-12-04T09:22:26;15.98;;;10.25;;
81176;SDS011;74095;48.270;14.200;2023-12-04T09:24:52;13.10;;;8.13;;
81176;SDS011;74095;48.270;14.200;2023-12-04T09:27:18;14.63;;;8.25;;
81176;SDS011;74095;48.270;14.200;2023-12-04T09:29:43;11.60;;;6.57;;
81176;SDS011;74095;48.270;14.200;2023-12-04T09:32:09;15.98;;;9.70;;
81176;SDS011;74095;48.270;14.200;2023-12-04T09:34:35;15.55;;;8.57;;
81176;SDS011;74095;48.270;14.200;2023-12-04T09:37:01;18.77;;;12.82;;
81176;SDS011;74095;48.270;14.200;2023-12-04T09:39:27;12.27;;;6.88;;
81176;SDS011;74095;48.270;14.200;2023-12-04T09:41:53;15.85;;;10.27;;
81176;SDS011;74095;48.270;14.200;2023-12-04T09:44:21;11.45;;;7.68;;
81176;SDS011;74095;48.270;14.200;2023-12-04T09:46:50;15.70;;;10.27;;
81176;SDS011;74095;48.270;14.200;2023-12-04T09:49:17;11.80;;;7.68;;
81176;SDS011;74095;48.270;14.200;2023-12-04T09:51:44;16.10;;;8.80;;
81176;SDS011;74095;48.270;14.200;2023-12-04T09:54:10;13.82;;;8.52;;
81176;SDS011;74095;48.270;14.200;2023-12-04T09:56:37;17.10;;;11.02;;
81176;SDS011;74095;48.270;14.200;2023-12-04T09:59:05;13.18;;;8.38;;
81176;SDS011;74095;48.270;14.200;2023-12-04T10:01:33;16.05;;;10.77;;
81176;SDS011;74095;48.270;14.200;2023-12-04T10:04:00;15.13;;;9.32;;
81176;SDS011;74095;48.270;14.200;2023-12-04T10:06:30;16.67;;;11.07;;
81176;SDS011;74095;48.270;14.200;2023-12-04T10:08:56;13.75;;;8.07;;
81176;SDS011;74095;48.270;14.200;2023-12-04T10:11:24;16.50;;;12.02;;
81176;SDS011;74095;48.270;14.200;2023-12-04T10:13:50;15.65;;;9.73;;
81176;SDS011;74095;48.270;14.200;2023-12-04T10:16:32;14.90;;;10.02;;
81176;SDS011;74095;48.270;14.200;2023-12-04T10:21:54;14.77;;;8.43;;
81176;SDS011;74095;48.270;14.200;2023-12-04T10:24:28;20.75;;;15.57;;
81176;SDS011;74095;48.270;14.200;2023-12-04T10:26:59;15.18;;;9.18;;
81176;SDS011;74095;48.270;14.200;2023-12-04T10:29:29;14.95;;;8.18;;
81176;SDS011;74095;48.270;14.200;2023-12-04T10:31:58;17.85;;;12.00;;
81176;SDS011;74095;48.270;14.200;2023-12-04T10:34:25;18.65;;;10.27;;
81176;SDS011;74095;48.270;14.200;2023-12-04T10:36:51;18.00;;;11.35;;
81176;SDS011;74095;48.270;14.200;2023-12-04T10:39:18;18.48;;;10.52;;
81176;SDS011;74095;48.270;14.200;2023-12-04T10:41:44;19.33;;;11.38;;
81176;SDS011;74095;48.270;14.200;2023-12-04T10:44:09;14.75;;;9.55;;
81176;SDS011;74095;48.270;14.200;2023-12-04T10:46:44;16.75;;;7.63;;
81176;SDS011;74095;48.270;14.200;2023-12-04T10:49:12;19.48;;;11.85;;
81176;SDS011;74095;48.270;14.200;2023-12-04T10:51:39;17.05;;;10.07;;
81176;SDS011;74095;48.270;14.200;2023-12-04T10:54:05;18.00;;;11.23;;
81176;SDS011;74095;48.270;14.200;2023-12-04T10:56:33;18.08;;;9.15;;
81176;SDS011;74095;48.270;14.200;2023-12-04T10:59:10;18.85;;;9.57;;
81176;SDS011;74095;48.270;14.200;2023-12-04T11:01:38;20.70;;;10.52;;
81176;SDS011;74095;48.270;14.200;2023-12-04T11:04:08;23.80;;;13.35;;
81176;SDS011;74095;48.270;14.200;2023-12-04T11:06:39;19.10;;;10.15;;
81176;SDS011;74095;48.270;14.200;2023-12-04T11:09:06;19.25;;;9.90;;
81176;SDS011;74095;48.270;14.200;2023-12-04T11:11:37;19.92;;;11.15;;
81176;SDS011;74095;48.270;14.200;2023-12-04T11:14:08;12.52;;;7.20;;
81176;SDS011;74095;48.270;14.200;2023-12-04T11:16:38;14.63;;;7.50;;
81176;SDS011;74095;48.270;14.200;2023-12-04T11:21:58;20.52;;;12.43;;
81176;SDS011;74095;48.270;14.200;2023-12-04T11:24:24;25.30;;;14.57;;
81176;SDS011;74095;48.270;14.200;2023-12-04T11:26:50;14.13;;;8.48;;
81176;SDS011;74095;48.270;14.200;2023-12-04T11:29:18;23.10;;;12.27;;
81176;SDS011;74095;48.270;14.200;2023-12-04T11:31:44;17.63;;;9.30;;
81176;SDS011;74095;48.270;14.200;2023-12-04T11:34:11;25.48;;;11.43;;
81176;SDS011;74095;48.270;14.200;2023-12-04T11:36:38;26.25;;;13.43;;
81176;SDS011;74095;48.270;14.200;2023-12-04T11:39:08;25.48;;;12.30;;
81176;SDS011;74095;48.270;14.200;2023-12-04T11:41:36;15.45;;;9.35;;
81176;SDS011;74095;48.270;14.200;2023-12-04T11:44:02;28.38;;;15.13;;
81176;SDS011;74095;48.270;14.200;2023-12-04T11:46:29;29.77;;;15.45;;
81176;SDS011;74095;48.270;14.200;2023-12-04T11:49:32;40.63;;;20.27;;
81176;SDS011;74095;48.270;14.200;2023-12-04T11:51:51;21.30;;;11.90;;
81176;SDS011;74095;48.270;14.200;2023-12-04T11:54:18;25.50;;;12.98;;
81176;SDS011;74095;48.270;14.200;2023-12-04T11:59:38;13.90;;;7.22;;
81176;SDS011;74095;48.270;14.200;2023-12-04T12:02:07;27.25;;;14.10;;
81176;SDS011;74095;48.270;14.200;2023-12-04T12:04:34;31.38;;;16.33;;
81176;SDS011;74095;48.270;14.200;2023-12-04T12:06:59;49.13;;;23.00;;
81176;SDS011;74095;48.270;14.200;2023-12-04T12:09:28;19.50;;;10.00;;
81176;SDS011;74095;48.270;14.200;2023-12-04T12:11:56;26.80;;;12.40;;
81176;SDS011;74095;48.270;14.200;2023-12-04T12:14:22;23.70;;;12.60;;
81176;SDS011;74095;48.270;14.200;2023-12-04T12:16:48;25.88;;;15.20;;
81176;SDS011;74095;48.270;14.200;2023-12-04T12:19:14;28.35;;;14.63;;
81176;SDS011;74095;48.270;14.200;2023-12-04T12:21:40;23.42;;;11.95;;
81176;SDS011;74095;48.270;14.200;2023-12-04T12:24:06;29.90;;;16.17;;
81176;SDS011;74095;48.270;14.200;2023-12-04T12:26:33;30.73;;;16.17;;
81176;SDS011;74095;48.270;14.200;2023-12-04T12:28:59;26.48;;;15.43;;
81176;SDS011;74095;48.270;14.200;2023-12-04T12:31:25;29.73;;;16.70;;
81176;SDS011;74095;48.270;14.200;2023-12-04T12:33:50;22.98;;;12.77;;
81176;SDS011;74095;48.270;14.200;2023-12-04T12:36:17;24.60;;;12.02;;
81176;SDS011;74095;48.270;14.200;2023-12-04T12:38:44;23.63;;;13.52;;
81176;SDS011;74095;48.270;14.200;2023-12-04T12:41:18;18.08;;;10.73;;
81176;SDS011;74095;48.270;14.200;2023-12-04T12:43:44;22.13;;;11.32;;
81176;SDS011;74095;48.270;14.200;2023-12-04T12:46:10;25.73;;;14.07;;
81176;SDS011;74095;48.270;14.200;2023-12-04T12:48:36;24.58;;;13.88;;
81176;SDS011;74095;48.270;14.200;2023-12-04T12:51:02;38.35;;;19.35;;
81176;SDS011;74095;48.270;14.200;2023-12-04T12:53:31;31.02;;;17.88;;
81176;SDS011;74095;48.270;14.200;2023-12-04T12:55:59;28.65;;;17.33;;
81176;SDS011;74095;48.270;14.200;2023-12-04T12:58:26;22.42;;;13.93;;
81176;SDS011;74095;48.270;14.200;2023-12-04T13:00:52;27.05;;;13.70;;
81176;SDS011;74095;48.270;14.200;2023-12-04T13:03:19;29.98;;;15.90;;
81176;SDS011;74095;48.270;14.200;2023-12-04T13:05:45;28.33;;;15.38;;
81176;SDS011;74095;48.270;14.200;2023-12-04T13:08:12;23.63;;;13.77;;
81176;SDS011;74095;48.270;14.200;2023-12-04T13:10:38;26.92;;;14.52;;
81176;SDS011;74095;48.270;14.200;2023-12-04T13:13:04;26.08;;;15.07;;
81176;SDS011;74095;48.270;14.200;2023-12-04T13:15:38;29.27;;;16.17;;
81176;SDS011;74095;48.270;14.200;2023-12-04T13:18:04;31.63;;;16.20;;
81176;SDS011;74095;48.270;14.200;2023-12-04T13:20:30;34.20;;;16.75;;
81176;SDS011;74095;48.270;14.200;2023-12-04T13:22:56;25.73;;;13.07;;
81176;SDS011;74095;48.270;14.200;2023-12-04T13:25:21;35.22;;;17.88;;
81176;SDS011;74095;48.270;14.200;2023-12-04T13:27:48;31.58;;;15.35;;
81176;SDS011;74095;48.270;14.200;2023-12-04T13:30:14;53.50;;;23.02;;
81176;SDS011;74095;48.270;14.200;2023-12-04T13:32:40;43.85;;;21.95;;
81176;SDS011;74095;48.270;14.200;2023-12-04T13:35:06;40.97;;;19.73;;
81176;SDS011;74095;48.270;14.200;2023-12-04T13:37:33;38.10;;;19.17;;
81176;SDS011;74095;48.270;14.200;2023-12-04T13:40:02;37.55;;;19.20;;
81176;SDS011;74095;48.270;14.200;2023-12-04T13:42:38;45.55;;;22.75;;
81176;SDS011;74095;48.270;14.200;2023-12-04T13:45:23;34.90;;;19.00;;
81176;SDS011;74095;48.270;14.200;2023-12-04T13:47:49;56.95;;;26.75;;
81176;SDS011;74095;48.270;14.200;2023-12-04T13:50:15;46.17;;;21.55;;
81176;SDS011;74095;48.270;14.200;2023-12-04T13:52:42;57.58;;;28.75;;
81176;SDS011;74095;48.270;14.200;2023-12-04T13:55:09;40.08;;;23.30;;
81176;SDS011;74095;48.270;14.200;2023-12-04T13:57:46;35.00;;;17.70;;
81176;SDS011;74095;48.270;14.200;2023-12-04T14:00:24;29.08;;;15.73;;
81176;SDS011;74095;48.270;14.200;2023-12-04T14:02:50;35.42;;;17.90;;
81176;SDS011;74095;48.270;14.200;2023-12-04T14:05:25;33.88;;;16.77;;
81176;SDS011;74095;48.270;14.200;2023-12-04T14:07:51;29.13;;;16.60;;
81176;SDS011;74095;48.270;14.200;2023-12-04T14:10:18;30.95;;;17.45;;
81176;SDS011;74095;48.270;14.200;2023-12-04T14:12:43;29.60;;;16.40;;
81176;SDS011;74095;48.270;14.200;2023-12-04T14:15:10;31.02;;;16.23;;
81176;SDS011;74095;48.270;14.200;2023-12-04T14:17:36;31.08;;;17.17;;
81176;SDS011;74095;48.270;14.200;2023-12-04T14:20:05;27.38;;;16.92;;
81176;SDS011;74095;48.270;14.200;2023-12-04T14:22:40;29.13;;;16.08;;
81176;SDS011;74095;48.270;14.200;2023-12-04T14:25:08;39.13;;;19.52;;